Rosemont, Nebraska
Current Conditions -  °F | °C
As of 3:53 AM on Saturday 22 Nov 2014 (Local Time) from KHSI Reporting Station
Moderate Fog Moderate Fog  
Wind Chill: 24°   Ceiling: 200
Heat Index: 33°   Visibility: 0.25mi
Dew Point: 32°   Wind: 12mph
Humidity: 96%   Direction: 200°SSW
Pressure: 29.88"   Gusts: NA
Location:  40.2644°N, 98.3887°W
Report Text: KHSI 220953Z AUTO 20010KT 1/4SM FG VV002 01/00 A2988 RMK AO2 SLP126 I1001 T00060000
Loading
Personal Weather Stations






























Interactive Weather Map New forecast layout! Learn more

10-Day Weather Forecast

Advertisements
Track Severe Weather on mobile